createdAt,value
2016-06-30T00:00:13.877Z,23.32
2016-06-30T00:01:15.122Z,23.23
2016-06-30T00:02:14.503Z,23.2
2016-06-30T00:03:15.103Z,23.32
2016-06-30T00:04:15.115Z,23.35
2016-06-30T00:05:15.142Z,23.28
2016-06-30T00:06:15.124Z,23.31
2016-06-30T00:07:15.142Z,23.12
2016-06-30T00:08:14.519Z,23.12
2016-06-30T00:09:14.669Z,23.22
2016-06-30T00:10:15.147Z,23.17
2016-06-30T00:11:14.529Z,23.13
2016-06-30T00:12:15.199Z,23.17
2016-06-30T00:13:13.917Z,23.17
2016-06-30T00:14:15.188Z,23.19
2016-06-30T00:15:14.566Z,23.12
2016-06-30T00:16:15.175Z,23.13
2016-06-30T00:17:15.173Z,23.02
2016-06-30T00:18:14.576Z,23.05
2016-06-30T00:19:15.211Z,23.02
2016-06-30T00:20:15.191Z,23.15
2016-06-30T00:21:14.589Z,23.17
2016-06-30T00:22:15.485Z,23.28
2016-06-30T00:23:14.588Z,23.28
2016-06-30T00:24:14.645Z,23.2
2016-06-30T00:25:14.597Z,23.32
2016-06-30T00:26:15.223Z,23.28
2016-06-30T00:27:15.236Z,23.25
2016-06-30T00:28:14.600Z,23.15
2016-06-30T00:29:14.610Z,23.16
2016-06-30T00:30:14.618Z,23.16
2016-06-30T00:31:15.243Z,23.15
2016-06-30T00:32:14.673Z,23.13
2016-06-30T00:33:16.091Z,23.16
2016-06-30T00:34:14.631Z,23.19
2016-06-30T00:35:15.245Z,23.13
2016-06-30T00:36:15.262Z,23.15
2016-06-30T00:37:14.640Z,23.19
2016-06-30T00:38:15.277Z,23.17
2016-06-30T00:39:14.661Z,23.15
2016-06-30T00:40:14.668Z,23.16
2016-06-30T00:41:14.682Z,23.02
2016-06-30T00:42:15.631Z,23.15
2016-06-30T00:43:15.283Z,23.12
2016-06-30T00:44:15.665Z,23.2
2016-06-30T00:45:15.297Z,23.12
2016-06-30T00:46:14.183Z,23.17
2016-06-30T00:47:14.063Z,23.22
2016-06-30T00:48:14.688Z,23.16
2016-06-30T00:49:15.312Z,23.1
2016-06-30T00:50:14.085Z,23.17
2016-06-30T00:51:15.331Z,23.16
2016-06-30T00:52:15.328Z,23.17
2016-06-30T00:53:15.333Z,23.17
2016-06-30T00:54:15.327Z,23.16
2016-06-30T00:55:15.735Z,23.22
2016-06-30T00:56:15.331Z,23.16
2016-06-30T00:57:14.731Z,23.15
2016-06-30T00:58:14.726Z,23.15
2016-06-30T00:59:14.747Z,23.16
2016-06-30T01:00:15.380Z,23.27
2016-06-30T01:01:14.744Z,23.32
2016-06-30T01:02:15.383Z,23.2
2016-06-30T01:03:15.368Z,23.35
2016-06-30T01:04:14.764Z,23.1
2016-06-30T01:05:14.770Z,23.19
2016-06-30T01:06:14.827Z,23.17
2016-06-30T01:07:15.460Z,23.22
2016-06-30T01:08:14.771Z,23.15
2016-06-30T01:09:14.783Z,23.22
2016-06-30T01:10:15.487Z,23.27
2016-06-30T01:11:14.795Z,23.31
2016-06-30T01:12:14.797Z,23.28
2016-06-30T01:13:14.811Z,23.2
2016-06-30T01:14:14.800Z,23.22
2016-06-30T01:15:15.437Z,23.19
2016-06-30T01:16:15.434Z,23.19
2016-06-30T01:17:15.136Z,23.16
2016-06-30T01:18:15.485Z,23.25
2016-06-30T01:19:14.843Z,23.25
2016-06-30T01:20:14.840Z,23.2
2016-06-30T01:21:15.705Z,23.22
2016-06-30T01:22:14.856Z,23.22
2016-06-30T01:23:15.458Z,23.19
2016-06-30T01:24:15.470Z,23.31
2016-06-30T01:25:14.858Z,23.2
2016-06-30T01:26:14.850Z,23.19
2016-06-30T01:27:15.501Z,23.17
2016-06-30T01:28:14.272Z,23.17
2016-06-30T01:29:14.920Z,23.16
2016-06-30T01:30:14.877Z,23.17
2016-06-30T01:31:14.890Z,23.2
2016-06-30T01:32:16.046Z,23.17
2016-06-30T01:33:14.277Z,23.1
2016-06-30T01:34:14.909Z,23.17
2016-06-30T01:35:15.523Z,23.31
2016-06-30T01:36:15.521Z,23.12
2016-06-30T01:37:15.520Z,23.13
2016-06-30T01:38:14.294Z,23.19
2016-06-30T01:39:15.550Z,23.25
2016-06-30T01:40:15.556Z,23.17
2016-06-30T01:41:16.440Z,23.25
2016-06-30T01:42:15.548Z,23.2
2016-06-30T01:43:15.634Z,23.28
2016-06-30T01:44:15.566Z,23.19
2016-06-30T01:45:15.576Z,23.25
2016-06-30T01:46:15.587Z,23.16
2016-06-30T01:47:15.563Z,23.27
2016-06-30T01:48:15.579Z,23.19
2016-06-30T01:49:14.339Z,23.16
2016-06-30T01:50:15.593Z,23.19
2016-06-30T01:51:15.668Z,23.15
2016-06-30T01:52:16.047Z,23.13
2016-06-30T01:53:15.608Z,23.2
2016-06-30T01:54:15.767Z,23.13
2016-06-30T01:55:15.014Z,23.16
2016-06-30T01:56:16.531Z,23.13
2016-06-30T01:57:15.613Z,23.07
2016-06-30T01:58:15.701Z,23.02
2016-06-30T01:59:14.417Z,22.97
2016-06-30T02:00:15.019Z,23.04
2016-06-30T02:01:15.014Z,23.15
2016-06-30T02:02:14.413Z,23.1
2016-06-30T02:03:16.749Z,23.15
2016-06-30T02:04:15.670Z,23.25
2016-06-30T02:05:15.047Z,23.12
2016-06-30T02:06:15.034Z,23.17
2016-06-30T02:07:16.100Z,23.31
2016-06-30T02:08:15.051Z,23.23
2016-06-30T02:09:15.724Z,23.22
2016-06-30T02:10:15.089Z,23.13
2016-06-30T02:11:15.694Z,23.25
2016-06-30T02:12:15.069Z,23.16
2016-06-30T02:13:15.710Z,23.23
2016-06-30T02:14:15.082Z,23.23
2016-06-30T02:15:14.524Z,23.35
2016-06-30T02:16:15.185Z,23.36
2016-06-30T02:17:15.728Z,23.32
2016-06-30T02:18:16.546Z,23.17
2016-06-30T02:19:15.109Z,23.31
2016-06-30T02:20:15.724Z,23.33
2016-06-30T02:21:15.728Z,23.33
2016-06-30T02:22:14.497Z,23.31
2016-06-30T02:23:15.749Z,23.33
2016-06-30T02:24:15.128Z,23.28
2016-06-30T02:25:14.513Z,23.27
2016-06-30T02:26:15.138Z,23.32
2016-06-30T02:27:15.773Z,23.2
2016-06-30T02:28:15.179Z,23.2
2016-06-30T02:29:16.094Z,23.2
2016-06-30T02:30:15.784Z,23.16
2016-06-30T02:31:15.788Z,23.15
2016-06-30T02:32:15.166Z,23.17
2016-06-30T02:33:15.182Z,23.16
2016-06-30T02:34:15.797Z,23.33
2016-06-30T02:35:15.218Z,23.32
2016-06-30T02:36:15.806Z,23.38
2016-06-30T02:37:15.812Z,23.4
2016-06-30T02:38:15.191Z,23.35
2016-06-30T02:39:15.841Z,23.36
2016-06-30T02:40:16.450Z,23.33
2016-06-30T02:41:15.220Z,23.05
2016-06-30T02:42:14.592Z,23.07
2016-06-30T02:43:15.277Z,23.17
2016-06-30T02:44:15.275Z,23.22
2016-06-30T02:45:14.619Z,23.16
2016-06-30T02:46:15.231Z,23.25
2016-06-30T02:47:15.863Z,23.33
2016-06-30T02:48:15.244Z,23.27
2016-06-30T02:49:15.871Z,23.27
2016-06-30T02:50:15.878Z,23.28
2016-06-30T02:51:14.651Z,23.31
2016-06-30T02:52:15.266Z,23.31
2016-06-30T02:53:15.361Z,23.2
2016-06-30T02:54:14.666Z,23.1
2016-06-30T02:55:15.279Z,23.07
2016-06-30T02:56:15.919Z,23.15
2016-06-30T02:57:15.289Z,23.02
2016-06-30T02:58:15.297Z,23.12
2016-06-30T02:59:15.296Z,23
2016-06-30T03:00:15.914Z,23.01
2016-06-30T03:01:15.301Z,23
2016-06-30T03:02:16.545Z,22.88
2016-06-30T03:03:15.927Z,22.97
2016-06-30T03:04:15.937Z,23
2016-06-30T03:05:15.937Z,23.02
2016-06-30T03:06:15.327Z,22.98
2016-06-30T03:07:15.338Z,22.94
2016-06-30T03:08:15.336Z,22.86
2016-06-30T03:09:15.975Z,22.85
2016-06-30T03:10:15.378Z,22.97
2016-06-30T03:11:15.381Z,22.95
2016-06-30T03:12:15.359Z,22.95
2016-06-30T03:13:16.484Z,22.88
2016-06-30T03:14:15.369Z,22.86
2016-06-30T03:15:16.975Z,23.07
2016-06-30T03:16:15.993Z,23.01
2016-06-30T03:17:15.991Z,22.88
2016-06-30T03:18:14.768Z,22.94
2016-06-30T03:19:15.391Z,22.94
2016-06-30T03:20:16.019Z,22.79
2016-06-30T03:21:15.393Z,22.77
2016-06-30T03:22:16.264Z,22.94
2016-06-30T03:23:15.669Z,22.92
2016-06-30T03:24:16.870Z,22.95
2016-06-30T03:25:15.412Z,22.92
2016-06-30T03:26:14.882Z,22.83
2016-06-30T03:27:16.031Z,22.88
2016-06-30T03:28:16.047Z,22.85
2016-06-30T03:29:16.041Z,22.9
2016-06-30T03:30:16.049Z,22.85
2016-06-30T03:31:16.052Z,22.94
2016-06-30T03:32:15.440Z,22.97
2016-06-30T03:33:16.061Z,23
2016-06-30T03:34:16.054Z,22.98
2016-06-30T03:35:16.495Z,22.91
2016-06-30T03:36:15.448Z,22.9
2016-06-30T03:37:15.451Z,22.95
2016-06-30T03:38:15.459Z,22.95
2016-06-30T03:39:16.390Z,22.88
2016-06-30T03:40:16.102Z,22.88
2016-06-30T03:41:16.127Z,22.85
2016-06-30T03:42:15.500Z,22.91
2016-06-30T03:43:15.495Z,23
2016-06-30T03:44:15.506Z,22.98
2016-06-30T03:45:16.161Z,23.01
2016-06-30T03:46:15.393Z,23.02
2016-06-30T03:47:16.118Z,22.9
2016-06-30T03:48:17.341Z,22.91
2016-06-30T03:49:15.608Z,22.86
2016-06-30T03:50:15.819Z,22.92
2016-06-30T03:51:15.520Z,22.88
2016-06-30T03:52:15.512Z,22.83
2016-06-30T03:53:16.150Z,22.79
2016-06-30T03:54:15.542Z,22.83
2016-06-30T03:55:16.150Z,22.82
2016-06-30T03:56:16.165Z,22.8
2016-06-30T03:57:16.163Z,22.83
2016-06-30T03:58:16.179Z,22.72
2016-06-30T03:59:16.509Z,22.79
2016-06-30T04:00:16.184Z,22.77
2016-06-30T04:01:15.865Z,22.7
2016-06-30T04:02:15.567Z,22.77
2016-06-30T04:03:15.573Z,22.9
2016-06-30T04:04:16.185Z,23
2016-06-30T04:05:15.585Z,23.01
2016-06-30T04:06:16.203Z,22.98
2016-06-30T04:07:15.588Z,22.92
2016-06-30T04:08:14.975Z,22.8
2016-06-30T04:09:15.608Z,22.82
2016-06-30T04:10:17.326Z,22.72
2016-06-30T04:11:16.296Z,22.8
2016-06-30T04:12:15.810Z,22.79
2016-06-30T04:13:16.223Z,22.86
2016-06-30T04:14:15.623Z,22.86
2016-06-30T04:15:16.246Z,22.8
2016-06-30T04:16:15.624Z,22.58
2016-06-30T04:17:15.625Z,22.7
2016-06-30T04:18:15.631Z,22.57
2016-06-30T04:19:15.637Z,22.7
2016-06-30T04:20:15.662Z,22.8
2016-06-30T04:21:16.800Z,22.77
2016-06-30T04:22:16.267Z,22.83
2016-06-30T04:23:16.706Z,22.83
2016-06-30T04:24:15.661Z,22.72
2016-06-30T04:25:17.396Z,22.76
2016-06-30T04:26:16.279Z,22.8
2016-06-30T04:27:15.671Z,22.73
2016-06-30T04:28:15.055Z,22.73
2016-06-30T04:29:16.283Z,22.77
2016-06-30T04:30:16.293Z,22.79
2016-06-30T04:31:16.329Z,22.79
2016-06-30T04:32:17.026Z,22.82
2016-06-30T04:33:15.688Z,22.91
2016-06-30T04:34:16.322Z,22.9
2016-06-30T04:35:15.086Z,22.8
2016-06-30T04:36:15.745Z,22.7
2016-06-30T04:37:16.335Z,22.72
2016-06-30T04:38:16.330Z,22.83
2016-06-30T04:39:15.725Z,22.75
2016-06-30T04:40:15.737Z,22.9
2016-06-30T04:41:15.091Z,22.95
2016-06-30T04:42:15.715Z,22.9
2016-06-30T04:43:15.739Z,22.77
2016-06-30T04:44:16.433Z,22.85
2016-06-30T04:45:16.057Z,22.82
2016-06-30T04:46:16.369Z,22.85
2016-06-30T04:47:17.378Z,22.76
2016-06-30T04:48:16.378Z,22.73
2016-06-30T04:49:15.803Z,22.65
2016-06-30T04:50:16.390Z,22.65
2016-06-30T04:51:15.759Z,22.68
2016-06-30T04:52:15.762Z,22.72
2016-06-30T04:53:15.159Z,22.83
2016-06-30T04:54:15.780Z,22.8
2016-06-30T04:55:15.793Z,22.65
2016-06-30T04:56:16.424Z,22.73
2016-06-30T04:57:15.792Z,22.6
2016-06-30T04:58:17.483Z,22.67
2016-06-30T04:59:15.808Z,22.6
2016-06-30T05:00:15.801Z,22.65
2016-06-30T05:01:16.430Z,22.65
2016-06-30T05:02:16.445Z,22.72
2016-06-30T05:03:16.459Z,22.7
2016-06-30T05:04:16.438Z,22.68
2016-06-30T05:05:16.447Z,22.79
2016-06-30T05:06:16.426Z,22.79
2016-06-30T05:07:15.827Z,22.8
2016-06-30T05:08:15.826Z,22.86
2016-06-30T05:09:15.855Z,22.86
2016-06-30T05:10:16.467Z,23.02
2016-06-30T05:11:15.842Z,23.02
2016-06-30T05:12:16.470Z,22.97
2016-06-30T05:13:16.474Z,22.86
2016-06-30T05:14:16.475Z,22.92
2016-06-30T05:15:15.879Z,22.94
2016-06-30T05:16:16.483Z,22.91
2016-06-30T05:17:16.494Z,22.82
2016-06-30T05:18:16.521Z,22.76
2016-06-30T05:19:15.914Z,22.68
2016-06-30T05:20:17.438Z,22.68
2016-06-30T05:21:15.905Z,22.75
2016-06-30T05:22:16.500Z,22.75
2016-06-30T05:23:15.884Z,22.68
2016-06-30T05:24:16.507Z,22.64
2016-06-30T05:25:16.534Z,22.82
2016-06-30T05:26:15.291Z,22.83
2016-06-30T05:27:15.292Z,22.8
2016-06-30T05:28:15.930Z,22.77
2016-06-30T05:29:16.542Z,22.92
2016-06-30T05:30:15.938Z,22.92
2016-06-30T05:31:17.025Z,22.76
2016-06-30T05:32:16.572Z,22.76
2016-06-30T05:33:16.233Z,22.67
2016-06-30T05:34:16.582Z,22.79
2016-06-30T05:35:15.955Z,22.77
2016-06-30T05:36:16.570Z,22.68
2016-06-30T05:37:16.651Z,22.7
2016-06-30T05:38:15.952Z,22.86
2016-06-30T05:39:16.587Z,22.86
2016-06-30T05:40:15.985Z,22.95
2016-06-30T05:41:16.583Z,22.91
2016-06-30T05:42:17.254Z,22.9
2016-06-30T05:43:15.986Z,22.7
2016-06-30T05:44:16.042Z,22.73
2016-06-30T05:45:16.836Z,22.72
2016-06-30T05:46:16.622Z,22.82
2016-06-30T05:47:16.032Z,22.73
2016-06-30T05:48:16.602Z,22.75
2016-06-30T05:49:16.676Z,22.77
2016-06-30T05:50:16.034Z,22.82
2016-06-30T05:51:16.641Z,22.86
2016-06-30T05:52:16.037Z,22.8
2016-06-30T05:53:17.299Z,22.9
2016-06-30T05:54:16.042Z,22.94
2016-06-30T05:55:16.051Z,22.98
2016-06-30T05:56:16.675Z,23.01
2016-06-30T05:57:16.674Z,22.94
2016-06-30T05:58:16.678Z,22.88
2016-06-30T05:59:16.060Z,23.04
2016-06-30T06:00:16.679Z,22.92
2016-06-30T06:01:15.447Z,22.85
2016-06-30T06:02:16.054Z,22.85
2016-06-30T06:03:16.682Z,22.85
2016-06-30T06:04:16.764Z,22.97
2016-06-30T06:05:16.078Z,22.86
2016-06-30T06:06:16.086Z,22.9
2016-06-30T06:07:16.721Z,22.9
2016-06-30T06:08:16.710Z,22.98
2016-06-30T06:09:16.722Z,23.02
2016-06-30T06:10:16.118Z,22.94
2016-06-30T06:11:16.115Z,23.02
2016-06-30T06:12:15.492Z,23.04
2016-06-30T06:13:16.735Z,23.02
2016-06-30T06:14:16.143Z,23.17
2016-06-30T06:15:17.100Z,23.01
2016-06-30T06:16:16.760Z,22.91
2016-06-30T06:17:17.930Z,22.95
2016-06-30T06:18:16.784Z,22.8
2016-06-30T06:19:17.051Z,22.9
2016-06-30T06:20:16.159Z,22.8
2016-06-30T06:21:16.174Z,22.75
2016-06-30T06:22:15.574Z,22.92
2016-06-30T06:23:15.549Z,22.82
2016-06-30T06:24:16.790Z,22.65
2016-06-30T06:25:16.811Z,22.64
2016-06-30T06:26:16.803Z,22.67
2016-06-30T06:27:16.193Z,22.52
2016-06-30T06:28:16.197Z,22.68
2016-06-30T06:29:16.193Z,22.62
2016-06-30T06:30:16.784Z,22.73
2016-06-30T06:31:16.814Z,22.94
2016-06-30T06:32:16.854Z,22.82
2016-06-30T06:33:16.833Z,22.83
2016-06-30T06:34:16.221Z,22.94
2016-06-30T06:35:16.837Z,22.9
2016-06-30T06:36:16.837Z,23
2016-06-30T06:37:16.249Z,23.17
2016-06-30T06:38:16.874Z,23.09
2016-06-30T06:39:15.641Z,23.04
2016-06-30T06:40:16.243Z,23
2016-06-30T06:41:17.264Z,23.02
2016-06-30T06:42:16.245Z,23.15
2016-06-30T06:43:16.291Z,23.02
2016-06-30T06:44:16.902Z,23.25
2016-06-30T06:45:15.646Z,23.2
2016-06-30T06:46:16.268Z,23.13
2016-06-30T06:47:16.886Z,23.23
2016-06-30T06:48:16.893Z,23.1
2016-06-30T06:49:16.907Z,23.13
2016-06-30T06:50:15.663Z,23.2
2016-06-30T06:51:16.286Z,23.22
2016-06-30T06:52:17.467Z,23.32
2016-06-30T06:53:16.926Z,23.2
2016-06-30T06:54:16.316Z,23.17
2016-06-30T06:55:16.959Z,23.2
2016-06-30T06:56:16.922Z,23.2
2016-06-30T06:57:16.351Z,23.28
2016-06-30T06:58:15.709Z,23.28
2016-06-30T06:59:15.730Z,23.39
2016-06-30T07:00:16.958Z,23.42
2016-06-30T07:01:17.691Z,23.38
2016-06-30T07:02:16.338Z,23.43
2016-06-30T07:03:16.966Z,23.42
2016-06-30T07:04:16.374Z,23.28
2016-06-30T07:05:18.052Z,23.19
2016-06-30T07:06:16.365Z,23.16
2016-06-30T07:07:16.997Z,23.28
2016-06-30T07:08:16.990Z,23.2
2016-06-30T07:09:16.990Z,23.16
2016-06-30T07:10:16.398Z,23.13
2016-06-30T07:11:17.015Z,23.19
2016-06-30T07:12:17.033Z,23.02
2016-06-30T07:13:17.025Z,23.15
2016-06-30T07:14:16.564Z,23.16
2016-06-30T07:15:17.039Z,23.15
2016-06-30T07:16:16.429Z,23.16
2016-06-30T07:17:17.045Z,23.25
2016-06-30T07:18:16.426Z,23.19
2016-06-30T07:19:17.071Z,23.13
2016-06-30T07:20:17.078Z,23.12
2016-06-30T07:21:17.066Z,22.91
2016-06-30T07:22:17.066Z,22.9
2016-06-30T07:23:16.453Z,22.83
2016-06-30T07:24:15.846Z,23.04
2016-06-30T07:25:17.119Z,23.1
2016-06-30T07:26:17.105Z,23.17
2016-06-30T07:27:17.234Z,23.2
2016-06-30T07:28:16.472Z,23.02
2016-06-30T07:29:16.479Z,23.15
2016-06-30T07:30:16.489Z,23.09
2016-06-30T07:31:16.486Z,23.22
2016-06-30T07:32:16.498Z,23.23
2016-06-30T07:33:16.491Z,23.25
2016-06-30T07:34:16.500Z,23.36
2016-06-30T07:35:15.892Z,23.32
2016-06-30T07:36:16.514Z,23.32
2016-06-30T07:37:15.897Z,23.13
2016-06-30T07:38:17.474Z,23.17
2016-06-30T07:39:16.524Z,23
2016-06-30T07:40:16.537Z,22.95
2016-06-30T07:41:16.535Z,23.02
2016-06-30T07:42:16.552Z,23.15
2016-06-30T07:43:17.179Z,23.1
2016-06-30T07:44:15.926Z,23.2
2016-06-30T07:45:17.174Z,23.15
2016-06-30T07:46:17.221Z,23.04
2016-06-30T07:47:18.153Z,23.2
2016-06-30T07:48:16.569Z,23.01
2016-06-30T07:49:17.550Z,22.97
2016-06-30T07:50:16.568Z,22.98
2016-06-30T07:51:16.578Z,22.9
2016-06-30T07:52:17.192Z,22.88
2016-06-30T07:53:16.577Z,22.92
2016-06-30T07:54:16.589Z,22.95
2016-06-30T07:55:17.223Z,22.9
2016-06-30T07:56:15.990Z,22.94
2016-06-30T07:57:17.219Z,23.16
2016-06-30T07:58:16.636Z,23.17
2016-06-30T07:59:15.996Z,23.12
2016-06-30T08:00:17.086Z,23.27
2016-06-30T08:01:17.251Z,23.1
2016-06-30T08:02:18.556Z,23.02
2016-06-30T08:03:17.238Z,23.15
2016-06-30T08:04:16.022Z,23.07
2016-06-30T08:05:17.265Z,23.16
2016-06-30T08:06:17.278Z,23.05
2016-06-30T08:07:16.663Z,23.13
2016-06-30T08:08:17.273Z,23.09
2016-06-30T08:09:16.695Z,22.97
2016-06-30T08:10:17.295Z,22.94
2016-06-30T08:11:17.535Z,22.98
2016-06-30T08:12:16.665Z,23
2016-06-30T08:13:18.136Z,23.17
2016-06-30T08:14:17.317Z,23.19
2016-06-30T08:15:16.683Z,23.12
2016-06-30T08:16:17.314Z,23.25
2016-06-30T08:17:17.324Z,23.17
2016-06-30T08:18:16.714Z,23.2
2016-06-30T08:19:16.711Z,23.28
2016-06-30T08:20:16.712Z,23.31
2016-06-30T08:21:17.390Z,23.23
2016-06-30T08:22:17.516Z,23.17
2016-06-30T08:23:16.730Z,23.22
2016-06-30T08:24:16.739Z,23.32
2016-06-30T08:25:17.361Z,23.17
2016-06-30T08:26:16.746Z,23.33
2016-06-30T08:27:17.355Z,23.33
2016-06-30T08:28:16.797Z,23.32
2016-06-30T08:29:16.759Z,23.27
2016-06-30T08:30:16.765Z,23.28
2016-06-30T08:31:17.392Z,23.31
2016-06-30T08:32:16.760Z,23.23
2016-06-30T08:33:17.996Z,23.07
2016-06-30T08:34:16.781Z,23.09
2016-06-30T08:35:18.412Z,23.15
2016-06-30T08:36:17.425Z,23.27
2016-06-30T08:37:17.841Z,23.17
2016-06-30T08:38:16.818Z,23.33
2016-06-30T08:39:17.427Z,23.31
2016-06-30T08:40:17.045Z,23.35
2016-06-30T08:41:17.442Z,23.47
2016-06-30T08:42:17.466Z,23.4
2016-06-30T08:43:17.439Z,23.35
2016-06-30T08:44:18.206Z,23.27
2016-06-30T08:45:17.471Z,23.33
2016-06-30T08:46:17.451Z,23.35
2016-06-30T08:47:16.894Z,23.28
2016-06-30T08:48:17.417Z,23.35
2016-06-30T08:49:16.871Z,23.23
2016-06-30T08:50:17.487Z,23.32
2016-06-30T08:51:17.485Z,23.22
2016-06-30T08:52:17.497Z,23.32
2016-06-30T08:53:17.531Z,23.48
2016-06-30T08:54:16.881Z,23.42
2016-06-30T08:55:16.884Z,23.42
2016-06-30T08:56:17.731Z,23.36
2016-06-30T08:57:16.903Z,23.35
2016-06-30T08:58:16.927Z,23.38
2016-06-30T08:59:17.553Z,23.42
2016-06-30T09:00:16.930Z,23.33
2016-06-30T09:01:17.543Z,23.39
2016-06-30T09:02:17.554Z,23.46
2016-06-30T09:03:17.574Z,23.47
2016-06-30T09:04:16.978Z,23.55
2016-06-30T09:05:17.570Z,23.57
2016-06-30T09:06:17.563Z,23.48
2016-06-30T09:07:17.575Z,23.54
2016-06-30T09:08:18.692Z,23.54
2016-06-30T09:09:17.584Z,23.54
2016-06-30T09:10:17.614Z,23.48
2016-06-30T09:11:17.604Z,23.54
2016-06-30T09:12:16.987Z,23.61
2016-06-30T09:13:16.997Z,23.58
2016-06-30T09:14:17.624Z,23.54
2016-06-30T09:15:17.615Z,23.58
2016-06-30T09:16:17.614Z,23.65
2016-06-30T09:17:17.012Z,23.66
2016-06-30T09:18:17.646Z,23.68
2016-06-30T09:19:17.678Z,23.6
2016-06-30T09:20:17.642Z,23.68
2016-06-30T09:21:17.029Z,23.66
2016-06-30T09:22:17.661Z,23.57
2016-06-30T09:23:18.294Z,23.61
2016-06-30T09:24:17.679Z,23.63
2016-06-30T09:25:17.064Z,23.68
2016-06-30T09:26:17.709Z,23.66
2016-06-30T09:27:17.691Z,23.61
2016-06-30T09:28:17.063Z,23.65
2016-06-30T09:29:17.712Z,23.7
2016-06-30T09:30:18.191Z,23.53
2016-06-30T09:31:16.475Z,23.63
2016-06-30T09:32:17.717Z,23.69
2016-06-30T09:33:17.107Z,23.76
2016-06-30T09:34:18.234Z,23.76
2016-06-30T09:35:17.739Z,23.7
2016-06-30T09:36:16.516Z,23.65
2016-06-30T09:37:17.127Z,23.68
2016-06-30T09:38:17.754Z,23.75
2016-06-30T09:39:17.147Z,23.69
2016-06-30T09:40:17.153Z,23.66
2016-06-30T09:41:17.166Z,23.58
2016-06-30T09:42:17.174Z,23.63
2016-06-30T09:43:18.754Z,23.65
2016-06-30T09:44:17.788Z,23.65
2016-06-30T09:45:18.848Z,23.65
2016-06-30T09:46:16.559Z,23.63
2016-06-30T09:47:17.819Z,23.55
2016-06-30T09:48:17.201Z,23.54
2016-06-30T09:49:16.628Z,23.65
2016-06-30T09:50:17.816Z,23.61
2016-06-30T09:51:17.212Z,23.58
2016-06-30T09:52:17.897Z,23.69
2016-06-30T09:53:17.214Z,23.72
2016-06-30T09:54:19.161Z,23.75
2016-06-30T09:55:16.622Z,23.69
2016-06-30T09:56:18.266Z,23.68
2016-06-30T09:57:17.856Z,23.7
2016-06-30T09:58:17.868Z,23.76
2016-06-30T09:59:17.876Z,23.83
2016-06-30T10:00:17.273Z,23.8
2016-06-30T10:01:17.886Z,23.87
2016-06-30T10:02:17.283Z,23.87
2016-06-30T10:03:17.905Z,23.85
2016-06-30T10:04:17.937Z,23.91
2016-06-30T10:05:18.414Z,23.87
2016-06-30T10:06:17.344Z,23.88
2016-06-30T10:07:18.380Z,23.83
2016-06-30T10:08:18.063Z,23.84
2016-06-30T10:09:16.691Z,23.78
2016-06-30T10:10:17.937Z,23.76
2016-06-30T10:11:17.937Z,23.7
2016-06-30T10:12:16.756Z,23.72
2016-06-30T10:13:16.714Z,23.7
2016-06-30T10:14:17.970Z,23.78
2016-06-30T10:15:17.362Z,23.78
2016-06-30T10:16:18.451Z,23.83
2016-06-30T10:17:17.363Z,23.75
2016-06-30T10:18:17.971Z,23.78
2016-06-30T10:19:18.005Z,23.76
2016-06-30T10:20:19.077Z,23.76
2016-06-30T10:21:17.380Z,23.79
2016-06-30T10:22:17.399Z,23.76
2016-06-30T10:23:18.015Z,23.73
2016-06-30T10:24:17.396Z,23.7
2016-06-30T10:25:17.414Z,23.7
2016-06-30T10:26:18.020Z,23.7
2016-06-30T10:27:17.444Z,23.73
2016-06-30T10:28:18.046Z,23.78
2016-06-30T10:29:17.529Z,23.73
2016-06-30T10:30:18.075Z,23.76
2016-06-30T10:31:18.828Z,23.76
2016-06-30T10:32:17.445Z,23.69
2016-06-30T10:33:18.117Z,23.76
2016-06-30T10:34:16.832Z,23.83
2016-06-30T10:35:18.086Z,23.83
2016-06-30T10:36:17.465Z,23.84
2016-06-30T10:37:17.464Z,23.66
2016-06-30T10:38:18.090Z,23.76
2016-06-30T10:39:18.082Z,23.83
2016-06-30T10:40:17.489Z,23.76
2016-06-30T10:41:18.099Z,23.76
2016-06-30T10:42:19.207Z,23.78
2016-06-30T10:43:18.123Z,23.83
2016-06-30T10:44:18.111Z,23.78
2016-06-30T10:45:17.539Z,23.73
2016-06-30T10:46:17.518Z,23.87
2016-06-30T10:47:18.142Z,23.8
2016-06-30T10:48:18.134Z,23.8
2016-06-30T10:49:18.209Z,23.78
2016-06-30T10:50:16.929Z,23.85
2016-06-30T10:51:17.543Z,23.85
2016-06-30T10:52:18.175Z,23.83
2016-06-30T10:53:18.836Z,23.79
2016-06-30T10:54:18.174Z,23.76
2016-06-30T10:55:18.217Z,23.76
2016-06-30T10:56:18.188Z,23.7
2016-06-30T10:57:17.585Z,23.7
2016-06-30T10:58:17.609Z,23.76
2016-06-30T10:59:17.583Z,23.73
2016-06-30T11:00:17.645Z,23.75
2016-06-30T11:01:16.991Z,23.76
2016-06-30T11:02:18.265Z,23.69
2016-06-30T11:03:17.611Z,23.63
2016-06-30T11:04:18.483Z,23.68
2016-06-30T11:05:18.253Z,23.61
2016-06-30T11:06:17.630Z,23.66
2016-06-30T11:07:17.636Z,23.73
2016-06-30T11:08:17.654Z,23.65
2016-06-30T11:09:18.285Z,23.76
2016-06-30T11:10:17.650Z,23.78
2016-06-30T11:11:17.669Z,23.69
2016-06-30T11:12:17.054Z,23.76
2016-06-30T11:13:18.289Z,23.8
2016-06-30T11:14:17.672Z,23.8
2016-06-30T11:15:17.672Z,23.85
2016-06-30T11:16:17.684Z,23.87
2016-06-30T11:17:17.687Z,23.79
2016-06-30T11:18:18.307Z,23.83
2016-06-30T11:19:17.715Z,23.78
2016-06-30T11:20:18.318Z,23.79
2016-06-30T11:21:17.711Z,23.84
2016-06-30T11:22:18.335Z,23.78
2016-06-30T11:23:18.344Z,23.88
2016-06-30T11:24:18.351Z,23.8
2016-06-30T11:25:18.370Z,23.87
2016-06-30T11:26:18.854Z,23.8
2016-06-30T11:27:17.751Z,23.88
2016-06-30T11:28:18.616Z,23.9
2016-06-30T11:29:18.379Z,23.79
2016-06-30T11:30:17.775Z,23.95
2016-06-30T11:31:17.163Z,23.87
2016-06-30T11:32:18.396Z,23.88
2016-06-30T11:33:18.391Z,23.94
2016-06-30T11:34:18.410Z,23.88
2016-06-30T11:35:18.410Z,23.9
2016-06-30T11:36:17.188Z,23.83
2016-06-30T11:37:19.107Z,23.94
2016-06-30T11:38:18.424Z,23.9
2016-06-30T11:39:18.438Z,23.93
2016-06-30T11:40:18.441Z,23.9
2016-06-30T11:41:18.448Z,23.9
2016-06-30T11:42:18.455Z,23.91
2016-06-30T11:43:18.456Z,23.87
2016-06-30T11:44:18.455Z,23.87
2016-06-30T11:45:17.861Z,23.85
2016-06-30T11:46:18.462Z,23.88
2016-06-30T11:47:17.892Z,23.8
2016-06-30T11:48:18.607Z,23.78
2016-06-30T11:49:17.937Z,23.88
2016-06-30T11:50:17.913Z,23.76
2016-06-30T11:51:18.572Z,23.87
2016-06-30T11:52:19.238Z,23.8
2016-06-30T11:53:17.878Z,23.87
2016-06-30T11:54:18.513Z,23.79
2016-06-30T11:55:17.917Z,23.87
2016-06-30T11:56:17.905Z,23.88
2016-06-30T11:57:17.919Z,23.88
2016-06-30T11:58:18.552Z,23.8
2016-06-30T11:59:18.507Z,23.7
2016-06-30T12:00:17.945Z,23.76
2016-06-30T12:01:18.566Z,23.76
2016-06-30T12:02:17.937Z,23.88
2016-06-30T12:03:19.666Z,23.9
2016-06-30T12:04:17.949Z,23.8
2016-06-30T12:05:17.964Z,23.93
2016-06-30T12:06:17.372Z,23.83
2016-06-30T12:07:17.981Z,23.93
2016-06-30T12:08:18.584Z,23.87
2016-06-30T12:09:17.991Z,23.79
2016-06-30T12:10:17.986Z,23.83
2016-06-30T12:11:17.370Z,23.93
2016-06-30T12:12:18.681Z,23.85
2016-06-30T12:13:17.995Z,23.7
2016-06-30T12:14:19.373Z,23.63
2016-06-30T12:15:18.631Z,23.7
2016-06-30T12:16:17.420Z,23.75
2016-06-30T12:17:18.014Z,23.75
2016-06-30T12:18:18.054Z,23.72
2016-06-30T12:19:18.045Z,23.75
2016-06-30T12:20:18.653Z,23.85
2016-06-30T12:21:18.045Z,23.8
2016-06-30T12:22:18.680Z,23.88
2016-06-30T12:23:18.686Z,23.88
2016-06-30T12:24:18.079Z,23.9
2016-06-30T12:25:18.956Z,23.94
2016-06-30T12:26:18.070Z,23.88
2016-06-30T12:27:18.699Z,23.91
2016-06-30T12:28:18.716Z,23.84
2016-06-30T12:29:18.093Z,23.88
2016-06-30T12:30:18.819Z,23.88
2016-06-30T12:31:18.723Z,23.87
2016-06-30T12:32:18.752Z,23.91
2016-06-30T12:33:18.115Z,23.79
2016-06-30T12:34:19.695Z,23.79
2016-06-30T12:35:18.116Z,23.88
2016-06-30T12:36:19.064Z,23.84
2016-06-30T12:37:18.186Z,23.76
2016-06-30T12:38:18.753Z,23.84
2016-06-30T12:39:18.765Z,23.79
2016-06-30T12:40:18.754Z,23.78
2016-06-30T12:41:18.767Z,23.83
2016-06-30T12:42:17.539Z,23.91
2016-06-30T12:43:18.778Z,23.9
2016-06-30T12:44:18.801Z,23.9
2016-06-30T12:45:18.789Z,23.93
2016-06-30T12:46:18.800Z,23.85
2016-06-30T12:47:19.459Z,23.85
2016-06-30T12:48:18.182Z,23.83
2016-06-30T12:49:18.805Z,23.94
2016-06-30T12:50:18.815Z,23.94
2016-06-30T12:51:18.242Z,23.94
2016-06-30T12:52:18.833Z,23.9
2016-06-30T12:53:18.836Z,23.9
2016-06-30T12:54:18.841Z,23.9
2016-06-30T12:55:18.931Z,23.93
2016-06-30T12:56:18.851Z,23.9
2016-06-30T12:57:18.238Z,23.95